Airfield :
LOGIN :

Register | Disclaimer

   EN    FR    IT 

 










Legend :    VFR   Marginal VFR   IFR   Intensive IFR   Very Intensive IFR
Visi :
Ceiling :
>= 8 km
>= 3000ft
5 to 8 km
1000 to 3000 ft
1500m to 5 km
500 to 1000 ft
800 to 1500m
200 to 500 ft
< 800m
< 200 ft
Symbols :   Thunderstorms  Fog  Heavy snow  Heavy precipitations  Wind > 20 kt
SIGMETs :     Misc.  Thunderstorms  Icing  Turbulence  Mountain Waves  Volcanic Ashes







- Airport Elevation : 74 ft
- IATA code : EIN


EHEH - Eindhoven

CURRENT METAR :
  • 152355Z AUTO 36002KT 9999 OVC190 13/12 Q1022 BLU

EXPIRED METARs :
  • 152325Z AUTO 36001KT 9999 OVC200 14/13 Q1022 BLU
  • 152255Z AUTO VRB02KT 9999 OVC200 14/13 Q1022 BLU
  • 152225Z AUTO 23002KT 9999 OVC200 14/12 Q1022 BLU
  • 152155Z AUTO 28001KT 9999 OVC220 13/12 Q1022 BLU
  • 152125Z AUTO 25002KT 9999 OVC200 14/13 Q1022 BLU

TAF TAF EHEH
Valid from the 16 at 00:00 until the 17 at 06:00 UTC


152315Z 1600/1706 VRB03KT CAVOK
PROB30
TEMPO 1605/1608 FEW008 SCT012 BKN020
BECMG 1609/1612 27006KT
BECMG 1613/1615 FEW012 SCT015 BKN020
TEMPO 1614/1618 FEW006 SCT008 BKN010
BECMG 1618/1620 FEW020 SCT030
BECMG 1621/1623 3000 BR
PROB30 1623/1706 0500 FG
No reported NOTAMs for that airfield.



MET'MAP, your aeronautical weather chart ! - Copyright ORBIFLY December 2007 - Disclaimer

ORBIFLY MET'MAP TEAM :

Programming & Development : Alexandra Zaïnal
Concept & Development : Baudouin d'Aumeries
Co-Development & Prog : Marc-Olivier Méhu
Technical & hardware support : Manuel Goepfert

Contact : metmap@orbifly.com




SOURCES & CREDITS :

   NOAA